Aviation Digital Data Service (ADDS)

Output produced by METARs form (0941 UTC 07 December 2022)
found at http://www.aviationweather.gov/metar/data/
 
LHDC 070915Z AUTO 21010KT 9999 BKN045 03/02 Q1015 NOSIG
LHDC 070845Z AUTO 21009KT 9999 BKN049 03/02 Q1015 NOSIG
LHDC 070815Z AUTO 21008KT 9999 FEW016 OVC051 02/01 Q1015 NOSIG
LHDC 070745Z AUTO 20008KT 7000 -RA OVC042 01/01 Q1015 NOSIG
LHDC 070715Z AUTO 19007KT 6000 OVC041 01/00 Q1015 BECMG 7000 NSW
LHDC 070645Z AUTO 19006KT 5000 BR NSC 01/00 Q1015 BECMG 7000 NSW
LHDC 070615Z AUTO 18008KT 4500 BR NSC 00/00 Q1015 TEMPO 6000 NSW
LHDC 070545Z AUTO 19007KT 5000 BR NSC 00/00 Q1015 TEMPO 5000 BR
LHDC 070515Z AUTO 18007KT 6000 NSC 00/00 Q1015 NOSIG
LHDC 070445Z AUTO 19006KT 150V210 6000 NSC 00/00 Q1015 NOSIG
LHDC 070415Z AUTO 21006KT 8000 NSC 00/00 Q1015 NOSIG
LHDC 070345Z AUTO 18005KT 130V220 7000 SCT036 BKN070 01/00 Q1015 NOSIG
TAF LHDC 070815Z 0709/0718 20008KT 8000 OVC040 
     BECMG 0710/0713 CAVOK 
     BECMG 0716/0718 5000 BR